Time;durP1;ratioP1;P1;durP2;ratioP2;P2;SDS_P1;SDS_P2;PMS_P1;PMS_P2;Temp;Humidity;BMP_temperature;BMP_pressure;BME280_temperature;BME280_humidity;BME280_pressure;Samples;Min_cycle;Max_cycle;Signal;HPM_P1;HPM_P2
2023/06/22 00:00:51;;;;;;;5.85;3.97;;;;;;;21.36;58.78;101631.47;3581003;39;20116;-65
2023/06/22 00:03:24;;;;;;;4.40;4.00;;;;;;;21.32;58.55;101619.94;3581873;39;20299;-67
2023/06/22 00:05:51;;;;;;;4.95;4.47;;;;;;;21.13;58.34;101592.63;3581085;39;20053;-65
2023/06/22 00:08:18;;;;;;;5.28;4.75;;;;;;;20.94;58.23;101563.41;3578608;39;20394;-67
2023/06/22 00:10:45;;;;;;;5.82;5.00;;;;;;;21.21;58.25;101638.38;3580474;39;20048;-67
2023/06/22 00:13:13;;;;;;;5.47;4.90;;;;;;;20.46;58.92;101517.78;3582911;39;20057;-67
2023/06/22 00:15:41;;;;;;;5.88;5.28;;;;;;;21.12;58.49;101622.81;3583079;39;20279;-69
2023/06/22 00:18:08;;;;;;;6.35;4.82;;;;;;;21.13;59.22;101625.44;3583377;39;20314;-68
2023/06/22 00:20:36;;;;;;;7.88;5.35;;;;;;;21.10;59.38;101623.84;3581503;39;20088;-67
2023/06/22 00:23:08;;;;;;;5.22;4.75;;;;;;;21.10;58.99;101632.03;3583430;39;20047;-67
2023/06/22 00:25:41;;;;;;;6.90;5.53;;;;;;;21.07;59.19;101626.88;3579235;39;20060;-66
2023/06/22 00:28:07;;;;;;;5.65;4.93;;;;;;;21.07;59.59;101618.66;3580393;39;20475;-67
2023/06/22 00:30:34;;;;;;;6.32;4.88;;;;;;;20.83;59.61;101590.88;3581243;40;20068;-66
2023/06/22 00:33:00;;;;;;;6.63;5.55;;;;;;;20.97;59.87;101623.28;3579725;39;20055;-67
2023/06/22 00:35:28;;;;;;;6.85;5.38;;;;;;;20.90;61.19;101624.84;3582893;39;20402;-68
2023/06/22 00:38:00;;;;;;;8.65;5.57;;;;;;;20.85;60.75;101621.66;3579069;40;20485;-65
2023/06/22 00:40:33;;;;;;;5.50;5.00;;;;;;;20.74;61.66;101602.66;3580669;39;20109;-68
2023/06/22 00:42:59;;;;;;;5.53;4.90;;;;;;;20.75;61.33;101615.34;3579221;39;20070;-66
2023/06/22 00:45:26;;;;;;;5.88;4.85;;;;;;;20.70;62.11;101617.63;3579176;39;20432;-66
2023/06/22 00:47:55;;;;;;;6.50;5.47;;;;;;;20.68;61.73;101619.63;3579489;39;20056;-67
2023/06/22 00:50:25;;;;;;;5.90;5.30;;;;;;;20.60;62.21;101613.00;3580671;39;20103;-67
2023/06/22 00:52:58;;;;;;;5.72;5.22;;;;;;;20.49;63.08;101599.44;3581499;39;20066;-67
2023/06/22 00:55:26;;;;;;;7.30;6.47;;;;;;;20.52;62.92;101609.22;3581352;39;20314;-68
2023/06/22 00:57:56;;;;;;;7.25;6.55;;;;;;;20.50;62.67;101609.34;3582298;39;20059;-68
2023/06/22 01:00:24;;;;;;;7.47;6.05;;;;;;;20.45;62.70;101611.63;3580405;39;20051;-67
2023/06/22 01:02:52;;;;;;;7.07;6.38;;;;;;;20.40;63.04;101608.47;3581082;39;20414;-68
2023/06/22 01:05:21;;;;;;;7.80;6.22;;;;;;;20.35;63.33;101608.88;3586326;39;20052;-68
2023/06/22 01:08:17;;;;;;;7.20;6.50;;;;;;;20.28;64.20;101607.72;3582951;39;20584;-67
2023/06/22 01:11:10;;;;;;;7.00;6.30;;;;;;;20.24;64.77;101611.72;3582038;39;20051;-69
2023/06/22 01:13:45;;;;;;;10.07;6.30;;;;;;;20.23;64.78;101603.66;3582000;39;20184;-69
2023/06/22 01:16:30;;;;;;;6.80;6.10;;;;;;;20.21;65.02;101602.97;3581259;39;20555;-68
2023/06/22 01:19:09;;;;;;;7.68;6.97;;;;;;;20.13;65.60;101596.31;3581006;39;20047;-68
2023/06/22 01:21:36;;;;;;;7.47;6.78;;;;;;;20.21;65.71;101613.88;3580607;39;20144;-68
2023/06/22 01:24:32;;;;;;;9.40;6.95;;;;;;;20.17;66.11;101611.44;3578785;39;20079;-67
2023/06/22 01:27:28;;;;;;;9.48;7.53;;;;;;;20.15;66.02;101616.16;3579745;39;20074;-68
2023/06/22 01:30:00;;;;;;;7.85;7.05;;;;;;;20.14;67.34;101614.44;3583024;39;20063;-67
2023/06/22 01:32:37;;;;;;;8.30;7.45;;;;;;;20.12;66.90;101599.19;3580069;39;20373;-67
2023/06/22 01:35:07;;;;;;;8.10;7.30;;;;;;;19.93;66.79;101561.75;3579785;39;20064;-67
2023/06/22 01:37:37;;;;;;;8.48;7.57;;;;;;;19.89;66.81;101550.25;3583679;39;20062;-68
2023/06/22 01:40:08;;;;;;;9.43;8.07;;;;;;;20.18;66.98;101602.22;3580815;39;20059;-68
2023/06/22 01:42:36;;;;;;;9.80;7.75;;;;;;;20.21;67.25;101597.50;3581951;39;20056;-67
2023/06/22 01:45:03;;;;;;;8.48;7.68;;;;;;;20.12;66.33;101589.13;3583855;39;20064;-66
2023/06/22 01:47:29;;;;;;;9.48;8.48;;;;;;;20.18;66.81;101599.50;3583992;39;20052;-66
2023/06/22 01:49:56;;;;;;;9.63;8.25;;;;;;;20.14;67.45;101603.50;3585979;39;20060;-68
2023/06/22 01:52:22;;;;;;;9.32;8.30;;;;;;;20.12;67.38;101600.03;3581537;39;20055;-68
2023/06/22 01:54:48;;;;;;;8.77;7.97;;;;;;;20.10;67.64;101599.31;3587624;39;20058;-68
2023/06/22 01:57:14;;;;;;;9.50;8.05;;;;;;;20.07;68.14;101601.47;3586827;39;20074;-68
2023/06/22 01:59:49;;;;;;;10.07;9.00;;;;;;;20.01;67.84;101596.53;3582358;39;20103;-67
2023/06/22 02:02:20;;;;;;;9.30;8.38;;;;;;;19.98;68.29;101597.72;3587925;39;20066;-68
2023/06/22 02:05:18;;;;;;;12.60;8.82;;;;;;;19.98;68.14;101596.81;3586589;39;20059;-67
2023/06/22 02:08:10;;;;;;;10.95;9.18;;;;;;;19.99;68.54;101596.69;3588116;39;20209;-67
2023/06/22 02:10:41;;;;;;;9.52;8.63;;;;;;;19.91;68.60;101581.00;3579903;39;20247;-67
2023/06/22 02:13:10;;;;;;;11.95;9.43;;;;;;;19.98;69.22;101591.34;3573710;39;20069;-69
2023/06/22 02:15:36;;;;;;;11.23;9.95;;;;;;;19.96;69.10;101596.97;3585566;39;20054;-66
2023/06/22 02:18:02;;;;;;;13.52;10.18;;;;;;;;;;3584200;39;20057;-66
2023/06/22 02:20:28;;;;;;;11.07;9.90;;;;;;;19.88;69.31;101589.44;3584392;39;20121;-66
2023/06/22 02:22:54;;;;;;;11.02;9.93;;;;;;;19.74;69.05;101569.88;3586335;39;20496;-68
2023/06/22 02:25:19;;;;;;;10.90;9.50;;;;;;;19.92;69.33;101595.53;3581752;39;20310;-68
2023/06/22 02:27:46;;;;;;;12.35;10.70;;;;;;;19.60;69.70;101546.50;3582129;39;20104;-67
2023/06/22 02:30:12;;;;;;;11.23;10.13;;;;;;;19.88;70.15;101584.00;3586608;39;20075;-68
2023/06/22 02:32:41;;;;;;;11.45;10.35;;;;;;;19.73;69.57;101547.19;3585255;39;20142;-67
2023/06/22 02:35:08;;;;;;;11.70;10.50;;;;;;;18.56;69.90;101349.41;3581846;39;20059;-68
2023/06/22 02:37:38;;;;;;;10.48;9.43;;;;;;;19.82;70.10;101572.75;3587006;39;20103;-68
2023/06/22 02:40:08;;;;;;;11.98;9.80;;;;;;;19.81;69.97;101576.50;3586382;39;20056;-67
2023/06/22 02:42:34;;;;;;;11.00;9.85;;;;;;;19.77;70.48;101581.38;3585949;39;20056;-66
2023/06/22 02:45:01;;;;;;;14.95;11.05;;;;;;;19.73;71.21;101570.84;3589281;39;20052;-67
2023/06/22 02:47:26;;;;;;;14.25;10.73;;;;;;;19.68;70.87;101572.13;3590615;39;20119;-68
2023/06/22 02:49:52;;;;;;;11.10;10.00;;;;;;;19.66;71.26;101562.34;3584621;39;20082;-67
2023/06/22 02:52:18;;;;;;;11.70;10.00;;;;;;;19.64;71.33;101570.69;3582896;39;20052;-67
2023/06/22 02:54:45;;;;;;;12.68;10.55;;;;;;;19.63;71.22;101571.66;3579773;39;20063;-68
2023/06/22 02:57:13;;;;;;;11.98;10.70;;;;;;;19.61;72.13;101573.66;3588044;39;20061;-67
2023/06/22 02:59:41;;;;;;;11.88;10.57;;;;;;;19.58;72.01;101571.19;3582906;39;20052;-67
2023/06/22 03:02:08;;;;;;;13.05;10.48;;;;;;;19.57;72.18;101564.03;3584941;39;20060;-67
2023/06/22 03:04:35;;;;;;;12.43;10.25;;;;;;;19.55;72.44;101566.00;3584509;39;20047;-67
2023/06/22 03:07:02;;;;;;;12.20;11.00;;;;;;;19.53;72.74;101553.50;3586840;39;20060;-68
2023/06/22 03:09:29;;;;;;;12.18;10.93;;;;;;;19.48;72.51;101545.72;3586613;39;20408;-67
2023/06/22 03:11:55;;;;;;;13.00;11.45;;;;;;;19.39;73.02;101535.63;3585917;39;20139;-68
2023/06/22 03:14:21;;;;;;;12.85;11.55;;;;;;;19.41;72.97;101547.25;3586247;39;20060;-67
2023/06/22 03:16:47;;;;;;;13.77;11.38;;;;;;;19.38;73.62;101547.56;3585859;39;20110;-68
2023/06/22 03:19:13;;;;;;;13.15;10.95;;;;;;;19.37;73.67;101545.81;3582768;39;20064;-68
2023/06/22 03:21:40;;;;;;;12.48;11.15;;;;;;;19.36;74.20;101539.50;3584478;39;20124;-69
2023/06/22 03:24:07;;;;;;;13.98;11.25;;;;;;;19.35;73.74;101539.63;3586434;39;20265;-68
2023/06/22 03:26:34;;;;;;;11.40;10.23;;;;;;;19.21;74.37;101519.88;3586941;39;20061;-68
2023/06/22 03:29:00;;;;;;;13.38;11.32;;;;;;;19.29;73.99;101532.00;3584456;39;20059;-68
2023/06/22 03:31:26;;;;;;;13.52;10.95;;;;;;;19.25;74.91;101531.38;3587192;39;20083;-68
2023/06/22 03:33:52;;;;;;;13.65;11.38;;;;;;;19.23;74.80;101527.94;3586059;39;20380;-67
2023/06/22 03:36:19;;;;;;;13.10;11.35;;;;;;;19.21;75.02;101529.91;3588531;39;20055;-68
2023/06/22 03:38:47;;;;;;;13.25;11.60;;;;;;;19.16;74.94;101530.34;3583885;39;20185;-68
2023/06/22 03:41:12;;;;;;;14.35;12.20;;;;;;;19.16;74.63;101529.47;3579473;39;20058;-68
2023/06/22 03:43:39;;;;;;;11.63;10.45;;;;;;;19.12;75.20;101526.13;3585904;39;20051;-67
2023/06/22 03:46:05;;;;;;;12.20;10.93;;;;;;;19.08;74.99;101523.81;3585175;39;20562;-67
2023/06/22 03:48:31;;;;;;;14.60;12.23;;;;;;;19.05;75.62;101527.66;3587702;39;20074;-67
2023/06/22 03:50:58;;;;;;;14.07;12.27;;;;;;;19.04;75.74;101516.91;3585607;39;20048;-67
2023/06/22 03:53:24;;;;;;;13.65;12.25;;;;;;;18.99;76.65;101515.41;3585968;39;20055;-68
2023/06/22 03:55:52;;;;;;;14.73;11.88;;;;;;;19.00;75.99;101510.88;3583989;39;20370;-67
2023/06/22 03:58:20;;;;;;;13.60;12.02;;;;;;;18.79;76.72;101479.00;3587339;39;20059;-67
2023/06/22 04:00:51;;;;;;;13.80;12.40;;;;;;;18.91;76.74;101507.06;3585090;39;20101;-68
2023/06/22 04:03:21;;;;;;;13.90;12.40;;;;;;;18.97;77.14;101522.03;3582746;39;20056;-67
2023/06/22 04:05:48;;;;;;;14.23;12.80;;;;;;;18.97;77.14;101522.88;3581193;39;20080;-67
2023/06/22 04:08:14;;;;;;;13.80;11.75;;;;;;;19.00;76.60;101511.72;3585460;39;20406;-68
2023/06/22 04:10:40;;;;;;;13.77;12.23;;;;;;;19.04;77.44;101522.34;3586819;39;20060;-66
2023/06/22 04:13:06;;;;;;;13.35;11.75;;;;;;;19.07;77.26;101511.19;3584014;39;20048;-65
2023/06/22 04:15:32;;;;;;;13.43;12.02;;;;;;;18.97;77.06;101494.78;3583021;39;20126;-65
2023/06/22 04:17:58;;;;;;;16.50;12.00;;;;;;;19.15;76.64;101514.09;3583238;39;20056;-65
2023/06/22 04:20:26;;;;;;;15.73;12.48;;;;;;;18.49;76.29;101402.63;3587093;39;20304;-66
2023/06/22 04:22:55;;;;;;;14.10;12.07;;;;;;;19.14;75.53;101513.25;3584978;39;20056;-67
2023/06/22 04:25:22;;;;;;;14.70;11.80;;;;;;;18.86;75.88;101464.88;3588935;39;20047;-67
2023/06/22 04:27:48;;;;;;;13.93;12.48;;;;;;;19.23;75.57;101523.34;3585759;39;20486;-67
2023/06/22 04:30:17;;;;;;;13.63;12.15;;;;;;;19.28;75.38;101527.50;3587204;39;20070;-67
2023/06/22 04:32:45;;;;;;;17.08;13.85;;;;;;;19.36;76.17;101525.84;3582580;39;20052;-68
2023/06/22 04:35:11;;;;;;;14.30;12.57;;;;;;;19.41;75.10;101528.16;3582918;39;20067;-68
2023/06/22 04:37:39;;;;;;;13.77;11.93;;;;;;;19.48;75.40;101527.50;3585158;39;20090;-67
2023/06/22 04:40:06;;;;;;;12.98;11.57;;;;;;;19.54;75.03;101525.25;3586362;39;20066;-67
2023/06/22 04:42:36;;;;;;;15.82;12.48;;;;;;;19.58;74.94;101524.81;3582829;39;20424;-68
2023/06/22 04:45:03;;;;;;;15.20;12.60;;;;;;;19.64;74.80;101521.59;3586569;39;20092;-67
2023/06/22 04:47:28;;;;;;;15.15;11.68;;;;;;;19.73;74.42;101524.47;3584171;39;20845;-68
2023/06/22 04:49:54;;;;;;;13.82;12.35;;;;;;;19.74;74.43;101515.31;3581586;39;20070;-69
2023/06/22 04:52:20;;;;;;;14.52;12.65;;;;;;;19.86;73.47;101534.16;3580838;39;20522;-68
2023/06/22 04:54:47;;;;;;;12.85;11.55;;;;;;;19.91;73.07;101528.28;3585004;39;20060;-68
2023/06/22 04:57:13;;;;;;;13.73;12.30;;;;;;;19.95;73.23;101524.28;3586019;39;20152;-68
2023/06/22 04:59:41;;;;;;;12.50;11.23;;;;;;;19.98;73.14;101526.75;3584264;39;20095;-68
2023/06/22 05:02:08;;;;;;;13.75;11.95;;;;;;;19.54;72.05;101444.28;3584665;39;20064;-68
2023/06/22 05:04:35;;;;;;;12.55;11.25;;;;;;;20.00;71.50;101511.06;3583265;39;20068;-67
2023/06/22 05:07:02;;;;;;;13.65;12.25;;;;;;;20.17;72.23;101532.25;3584319;39;20058;-68
2023/06/22 05:09:29;;;;;;;14.35;11.88;;;;;;;20.18;71.87;101512.13;3585874;39;20055;-67
2023/06/22 05:11:56;;;;;;;12.75;11.40;;;;;;;20.32;70.97;101518.19;3584174;39;20521;-67
2023/06/22 05:14:22;;;;;;;12.70;11.40;;;;;;;20.15;71.05;101481.53;3585618;39;20062;-67
2023/06/22 05:16:49;;;;;;;14.13;12.63;;;;;;;20.44;70.97;101522.53;3582012;39;21442;-67
2023/06/22 05:19:15;;;;;;;13.43;12.10;;;;;;;20.50;70.04;101524.69;3583019;39;20051;-66
2023/06/22 05:21:40;;;;;;;15.60;12.55;;;;;;;20.55;70.53;101522.44;3583290;39;20361;-67
2023/06/22 05:24:06;;;;;;;14.40;12.98;;;;;;;20.56;70.53;101518.69;3586973;39;20597;-66
2023/06/22 05:26:34;;;;;;;15.00;13.45;;;;;;;20.56;70.62;101523.28;3583531;39;20060;-67
2023/06/22 05:29:02;;;;;;;16.17;13.75;;;;;;;20.57;71.43;101525.88;3584312;39;20400;-67
2023/06/22 05:31:29;;;;;;;15.35;13.73;;;;;;;20.52;71.52;101520.00;3586396;39;20047;-66
2023/06/22 05:33:56;;;;;;;15.23;13.73;;;;;;;20.57;71.55;101514.94;3581207;39;20064;-66
2023/06/22 05:36:25;;;;;;;15.80;13.63;;;;;;;19.91;71.88;101405.50;3585447;39;20300;-67
2023/06/22 05:38:58;;;;;;;15.30;13.15;;;;;;;20.64;71.67;101512.50;3584829;39;20316;-67
2023/06/22 05:41:23;;;;;;;15.73;14.10;;;;;;;20.69;71.71;101517.53;3588456;39;20056;-67
2023/06/22 05:43:49;;;;;;;14.70;13.20;;;;;;;20.70;71.96;101509.19;3584189;39;21455;-67
2023/06/22 05:46:15;;;;;;;15.95;14.18;;;;;;;20.76;71.38;101507.75;3588338;39;20081;-66
2023/06/22 05:48:40;;;;;;;17.55;14.10;;;;;;;20.80;71.29;101520.13;3581731;39;20063;-67
2023/06/22 05:51:06;;;;;;;16.60;14.40;;;;;;;20.90;71.20;101529.19;3583803;39;20410;-66
2023/06/22 05:53:32;;;;;;;17.20;15.32;;;;;;;20.98;72.03;101523.84;3586563;39;20067;-66
2023/06/22 05:55:57;;;;;;;16.17;14.48;;;;;;;21.07;71.18;101517.50;3584992;39;20068;-67
2023/06/22 05:58:23;;;;;;;17.23;15.07;;;;;;;21.16;71.16;101515.78;3587519;39;20083;-67
2023/06/22 06:00:49;;;;;;;16.58;14.82;;;;;;;21.19;70.38;101518.22;3584311;39;20494;-67
2023/06/22 06:03:16;;;;;;;16.63;14.07;;;;;;;21.28;70.31;101516.44;3580558;39;20129;-66
2023/06/22 06:05:44;;;;;;;16.98;15.13;;;;;;;21.30;70.24;101517.16;3582359;39;20051;-67
2023/06/22 06:08:11;;;;;;;18.05;14.77;;;;;;;21.35;70.43;101530.41;3577212;39;20315;-68
2023/06/22 06:10:37;;;;;;;18.55;15.02;;;;;;;21.41;70.41;101522.50;3578953;39;20477;-70
2023/06/22 06:13:04;;;;;;;19.02;15.40;;;;;;;21.46;69.92;101509.22;3582052;39;20401;-65
2023/06/22 06:15:32;;;;;;;16.55;14.77;;;;;;;21.28;69.84;101478.16;3574229;39;20100;-66
2023/06/22 06:17:57;;;;;;;16.55;14.88;;;;;;;21.52;69.76;101513.25;3581008;39;20045;-66
2023/06/22 06:20:25;;;;;;;16.00;14.20;;;;;;;21.56;69.93;101512.78;3586716;39;20295;-66
2023/06/22 06:22:51;;;;;;;16.90;15.10;;;;;;;21.65;69.79;101511.03;3586221;39;20052;-66
2023/06/22 06:25:19;;;;;;;16.85;15.00;;;;;;;21.70;69.54;101521.53;3590668;39;20063;-66
2023/06/22 06:27:47;;;;;;;17.25;14.80;;;;;;;21.67;68.91;101516.38;3586986;39;20136;-68
2023/06/22 06:30:16;;;;;;;17.77;15.07;;;;;;;21.76;69.91;101510.00;3590070;39;20092;-67
2023/06/22 06:32:45;;;;;;;17.63;14.18;;;;;;;21.86;69.00;101519.00;3588330;39;20102;-67
2023/06/22 06:35:12;;;;;;;17.38;14.63;;;;;;;21.88;69.00;101511.50;3586332;39;20092;-67
2023/06/22 06:37:41;;;;;;;15.70;13.95;;;;;;;21.95;68.67;101518.09;3587691;39;20052;-68
2023/06/22 06:40:10;;;;;;;16.38;14.68;;;;;;;21.99;68.80;101526.88;3586533;39;20060;-67
2023/06/22 06:42:48;;;;;;;15.65;14.07;;;;;;;22.07;68.33;101521.47;3584222;39;20140;-68
2023/06/22 06:45:25;;;;;;;17.08;14.90;;;;;;;22.09;68.56;101519.47;3581043;39;20434;-67
2023/06/22 06:47:52;;;;;;;16.30;14.60;;;;;;;22.13;68.52;101523.59;3584999;39;20065;-66
2023/06/22 06:50:19;;;;;;;15.90;14.30;;;;;;;22.19;68.36;101531.25;3586843;39;20533;-66
2023/06/22 06:52:45;;;;;;;16.58;14.60;;;;;;;21.83;67.61;101470.03;3584004;39;20063;-67
2023/06/22 06:55:14;;;;;;;17.45;14.60;;;;;;;22.22;67.92;101525.47;3586375;39;20113;-66
2023/06/22 06:57:41;;;;;;;16.52;14.82;;;;;;;22.26;67.04;101523.28;3585265;39;20434;-66
2023/06/22 07:00:11;;;;;;;19.23;15.48;;;;;;;22.29;67.53;101525.69;3583068;39;20504;-67
2023/06/22 07:02:40;;;;;;;17.58;15.60;;;;;;;22.30;68.16;101521.97;3584622;39;20091;-67
2023/06/22 07:05:06;;;;;;;18.05;14.85;;;;;;;22.32;68.27;101519.91;3585928;39;20291;-68
2023/06/22 07:07:32;;;;;;;16.20;14.60;;;;;;;22.33;68.37;101518.03;3586996;39;20043;-66
2023/06/22 07:09:58;;;;;;;18.83;15.57;;;;;;;22.21;67.75;101495.50;3581395;39;20379;-67
2023/06/22 07:12:24;;;;;;;17.35;15.35;;;;;;;22.38;67.45;101523.91;3585136;39;20123;-67
2023/06/22 07:14:51;;;;;;;17.50;15.70;;;;;;;22.38;67.44;101513.81;3584162;39;20051;-66
2023/06/22 07:17:17;;;;;;;18.75;16.10;;;;;;;22.36;67.81;101526.84;3584959;39;20079;-67
2023/06/22 07:19:43;;;;;;;18.50;16.65;;;;;;;22.36;67.66;101520.47;3586346;39;20056;-67
2023/06/22 07:22:08;;;;;;;17.85;15.52;;;;;;;22.30;68.25;101511.00;3578336;39;20137;-68
2023/06/22 07:24:34;;;;;;;18.20;16.40;;;;;;;22.40;68.35;101521.91;3583730;39;20068;-67
2023/06/22 07:26:59;;;;;;;18.27;16.48;;;;;;;22.40;67.97;101511.78;3584187;39;20071;-67
2023/06/22 07:29:26;;;;;;;18.38;16.30;;;;;;;22.38;67.15;101523.91;3581792;39;20414;-67
2023/06/22 07:31:52;;;;;;;18.10;16.20;;;;;;;22.37;67.72;101517.59;3584872;39;20121;-66
2023/06/22 07:34:19;;;;;;;18.08;16.20;;;;;;;22.38;67.84;101513.81;3581868;39;20059;-66
2023/06/22 07:36:45;;;;;;;17.15;15.40;;;;;;;22.40;68.06;101506.31;3582569;39;20394;-67
2023/06/22 07:39:12;;;;;;;17.70;15.90;;;;;;;22.40;68.34;101492.63;3574063;39;20059;-68
2023/06/22 07:41:40;;;;;;;18.52;16.73;;;;;;;22.34;70.06;101474.06;3587226;39;20569;-68
2023/06/22 07:44:06;;;;;;;21.17;18.27;;;;;;;22.44;70.88;101474.84;3583932;39;20451;-67
2023/06/22 07:46:33;;;;;;;20.90;18.80;;;;;;;22.44;71.48;101469.38;3584577;39;20064;-69
2023/06/22 07:48:59;;;;;;;20.35;18.30;;;;;;;22.44;70.98;101466.63;3585306;39;20689;-68
2023/06/22 07:51:25;;;;;;;20.08;17.67;;;;;;;22.41;71.85;101449.63;3584908;39;20363;-67
2023/06/22 07:53:51;;;;;;;19.60;17.67;;;;;;;22.50;71.37;101450.59;3573816;39;20068;-66
2023/06/22 07:56:20;;;;;;;19.50;17.42;;;;;;;22.55;72.16;101448.22;3585799;39;20064;-66
2023/06/22 07:58:47;;;;;;;21.40;19.15;;;;;;;22.61;72.64;101436.63;3584693;39;21269;-67
2023/06/22 08:01:15;;;;;;;21.02;18.83;;;;;;;22.60;71.61;101418.47;3582274;39;20329;-67
2023/06/22 08:03:40;;;;;;;20.30;18.10;;;;;;;22.75;71.92;101429.72;3585559;39;20156;-67
2023/06/22 08:06:09;;;;;;;19.90;17.85;;;;;;;22.80;70.83;101425.47;3585071;39;20402;-67
2023/06/22 08:08:36;;;;;;;19.65;17.73;;;;;;;22.59;69.00;101378.38;3583292;39;20452;-67
2023/06/22 08:11:02;;;;;;;18.60;16.67;;;;;;;22.92;68.66;101418.69;3588764;39;20128;-66
2023/06/22 08:13:28;;;;;;;18.65;15.88;;;;;;;22.98;69.19;101416.38;3585400;39;20427;-67
2023/06/22 08:15:53;;;;;;;17.60;15.73;;;;;;;23.04;68.40;101413.00;3587520;39;20403;-67
2023/06/22 08:18:19;;;;;;;17.33;15.52;;;;;;;23.07;67.88;101410.78;3586910;39;20102;-68
2023/06/22 08:20:45;;;;;;;19.55;14.95;;;;;;;23.04;67.09;101399.28;3585732;39;20059;-66
2023/06/22 08:23:10;;;;;;;16.63;14.90;;;;;;;23.15;66.88;101408.09;3575224;39;20059;-67
2023/06/22 08:25:36;;;;;;;17.00;15.30;;;;;;;23.08;66.57;101385.06;3587584;39;20291;-67
2023/06/22 08:28:03;;;;;;;15.40;13.80;;;;;;;23.15;65.20;101401.72;3586424;39;20111;-67
2023/06/22 08:30:29;;;;;;;16.13;14.40;;;;;;;23.15;66.02;101401.72;3584889;39;20454;-66
2023/06/22 08:32:55;;;;;;;17.33;14.88;;;;;;;23.14;66.18;101400.00;3588591;39;20611;-67
2023/06/22 08:35:24;;;;;;;15.00;13.45;;;;;;;23.15;66.78;101407.22;3585397;39;20115;-67
2023/06/22 08:37:55;;;;;;;16.20;14.60;;;;;;;23.12;66.52;101402.94;3586326;39;20056;-65
2023/06/22 08:40:22;;;;;;;16.33;14.73;;;;;;;22.80;66.61;101353.34;3587607;39;20060;-66
2023/06/22 08:42:49;;;;;;;15.63;13.80;;;;;;;23.16;66.60;101406.22;3589805;39;20064;-66
2023/06/22 08:45:15;;;;;;;16.17;14.45;;;;;;;22.96;66.47;101369.91;3576584;39;20036;-68
2023/06/22 08:47:42;;;;;;;15.10;13.60;;;;;;;23.01;65.76;101381.25;3586703;39;20136;-66
2023/06/22 08:50:10;;;;;;;14.60;13.20;;;;;;;23.15;65.34;101402.63;3585179;39;20064;-66
2023/06/22 08:52:38;;;;;;;15.73;13.75;;;;;;;23.10;65.75;101387.66;3584526;39;20064;-67
2023/06/22 08:55:04;;;;;;;16.55;13.63;;;;;;;23.23;65.57;101396.31;3586461;39;20350;-66
2023/06/22 08:57:30;;;;;;;14.52;12.90;;;;;;;23.28;65.28;101396.69;3588411;39;20056;-66
2023/06/22 08:59:59;;;;;;;14.55;13.15;;;;;;;23.30;64.91;101391.88;3585714;39;20058;-68
2023/06/22 09:02:30;;;;;;;14.40;13.00;;;;;;;23.29;64.55;101390.16;3589713;39;20561;-68
2023/06/22 09:04:57;;;;;;;16.38;11.80;;;;;;;23.27;63.20;101378.47;3579209;39;20052;-67
2023/06/22 09:07:25;;;;;;;15.45;12.77;;;;;;;23.11;64.17;101335.38;3586208;39;20051;-66
2023/06/22 09:09:52;;;;;;;16.67;12.50;;;;;;;23.39;64.39;101377.16;3583609;39;20048;-67
2023/06/22 09:12:19;;;;;;;14.65;12.27;;;;;;;23.45;64.45;101383.03;3586032;39;20075;-67
2023/06/22 09:14:46;;;;;;;14.75;13.05;;;;;;;23.49;64.90;101381.66;3586686;39;20136;-67
2023/06/22 09:17:13;;;;;;;14.50;13.07;;;;;;;23.51;64.34;101374.13;3587842;39;20093;-67
2023/06/22 09:19:38;;;;;;;16.25;13.32;;;;;;;23.60;64.68;101379.47;3583889;39;20052;-66
2023/06/22 09:22:06;;;;;;;16.17;14.45;;;;;;;23.66;64.98;101380.72;3583302;39;20146;-66
2023/06/22 09:24:32;;;;;;;15.52;13.13;;;;;;;23.72;63.69;101377.31;3586225;39;20489;-67
2023/06/22 09:26:58;;;;;;;13.60;12.30;;;;;;;23.80;63.01;101384.72;3583443;39;20079;-68
2023/06/22 09:29:23;;;;;;;13.65;11.75;;;;;;;23.86;61.56;101379.41;3585063;39;20079;-68
2023/06/22 09:31:49;;;;;;;12.45;11.15;;;;;;;23.38;60.80;101282.16;3574083;39;20044;-68
2023/06/22 09:34:14;;;;;;;12.73;10.60;;;;;;;24.05;59.50;101377.38;3575389;39;20071;-68
2023/06/22 09:36:41;;;;;;;11.52;10.43;;;;;;;24.03;58.05;101372.03;3578068;39;20104;-70
2023/06/22 09:39:07;;;;;;;11.15;9.88;;;;;;;23.82;57.82;101323.13;3583687;39;20091;-70
2023/06/22 09:41:33;;;;;;;10.50;9.40;;;;;;;24.20;57.27;101381.19;3582327;39;20428;-70
2023/06/22 09:43:58;;;;;;;11.13;9.13;;;;;;;24.24;57.71;101379.81;3584635;39;20055;-70
2023/06/22 09:46:27;;;;;;;10.07;9.05;;;;;;;23.72;58.24;101272.13;3586318;39;20052;-69
2023/06/22 09:48:53;;;;;;;10.35;9.25;;;;;;;24.33;57.17;101365.03;3578733;39;20047;-69
2023/06/22 09:51:21;;;;;;;11.60;8.80;;;;;;;23.77;56.85;101267.00;3573237;39;20527;-69
2023/06/22 09:53:47;;;;;;;9.65;8.55;;;;;;;24.20;57.04;101342.72;3592035;39;20070;-70
2023/06/22 09:56:15;;;;;;;12.63;8.90;;;;;;;24.35;57.30;101362.09;3583286;39;20055;-69
2023/06/22 09:58:52;;;;;;;11.85;8.98;;;;;;;24.35;56.51;101367.59;3586304;39;20064;-69
2023/06/22 10:01:18;;;;;;;9.02;8.05;;;;;;;24.36;57.15;101362.97;3575324;39;20475;-69
2023/06/22 10:03:44;;;;;;;9.88;8.95;;;;;;;24.31;56.78;101364.34;3582746;39;20091;-69
2023/06/22 10:06:09;;;;;;;10.40;8.82;;;;;;;24.30;56.83;101361.78;3583420;39;20094;-69
2023/06/22 10:08:36;;;;;;;8.73;7.82;;;;;;;24.25;57.78;101356.78;3587111;39;20059;-70
2023/06/22 10:11:02;;;;;;;9.25;8.25;;;;;;;24.10;57.09;101344.75;3586387;39;20404;-69
2023/06/22 10:13:28;;;;;;;9.48;8.27;;;;;;;24.20;56.17;101367.44;3586876;39;20059;-69
2023/06/22 10:15:54;;;;;;;10.57;8.18;;;;;;;24.14;57.25;101353.53;3586833;39;20091;-69
2023/06/22 10:18:20;;;;;;;9.95;8.88;;;;;;;24.19;56.82;101365.72;3586737;39;20138;-69
2023/06/22 10:20:53;;;;;;;9.57;8.23;;;;;;;24.19;58.03;101371.19;3585080;39;20052;-69
2023/06/22 10:23:20;;;;;;;9.77;8.50;;;;;;;24.18;57.60;101361.25;3588857;39;20414;-69
2023/06/22 10:25:46;;;;;;;10.38;8.57;;;;;;;24.18;56.78;101366.75;3587216;39;20515;-69
2023/06/22 10:28:12;;;;;;;9.43;8.50;;;;;;;24.16;57.52;101374.28;3582531;39;20048;-70
2023/06/22 10:30:41;;;;;;;10.63;9.52;;;;;;;24.13;58.41;101374.63;3587669;39;20417;-69
2023/06/22 10:33:08;;;;;;;11.45;9.80;;;;;;;24.12;59.39;101375.66;3587312;39;20055;-70
2023/06/22 10:35:34;;;;;;;13.95;12.10;;;;;;;24.02;59.68;101370.34;3584313;39;20060;-69
2023/06/22 10:38:00;;;;;;;12.00;10.80;;;;;;;23.97;60.18;101385.59;3589565;39;20102;-69
2023/06/22 10:40:25;;;;;;;13.18;11.75;;;;;;;23.88;62.38;101381.13;3586157;39;20064;-70
2023/06/22 10:42:51;;;;;;;15.10;12.38;;;;;;;23.84;63.07;101380.59;3585710;39;20302;-70
2023/06/22 10:45:17;;;;;;;14.57;11.98;;;;;;;23.83;64.84;101395.38;3589185;39;21573;-70
2023/06/22 10:47:42;;;;;;;13.38;11.98;;;;;;;23.84;64.63;101408.06;3585432;39;20059;-71
2023/06/22 10:50:08;;;;;;;13.57;12.15;;;;;;;23.82;64.88;101407.38;3585739;39;20067;-71
2023/06/22 10:52:34;;;;;;;12.65;11.55;;;;;;;23.77;66.00;101407.00;3584865;39;20292;-71
2023/06/22 10:55:00;;;;;;;13.60;12.00;;;;;;;23.72;66.94;101413.00;3588956;39;20052;-72
2023/06/22 10:57:25;;;;;;;13.93;12.07;;;;;;;23.68;68.55;101410.72;3585725;39;20063;-71
2023/06/22 10:59:51;;;;;;;13.82;12.57;;;;;;;23.56;69.92;101404.66;3590414;39;20062;-71
2023/06/22 11:02:17;;;;;;;17.35;13.15;;;;;;;23.47;72.04;101402.91;3585665;39;20083;-71
2023/06/22 11:04:42;;;;;;;16.10;14.40;;;;;;;23.32;73.93;101409.03;3588192;39;20362;-71
2023/06/22 11:07:09;;;;;;;17.45;15.52;;;;;;;23.10;76.07;101395.91;3589135;39;20515;-70
2023/06/22 11:09:35;;;;;;;17.17;15.57;;;;;;;23.00;77.43;101406.13;3590326;39;20075;-69
2023/06/22 11:12:00;;;;;;;17.88;16.17;;;;;;;22.87;78.11;101401.88;3588390;40;20059;-70
2023/06/22 11:14:26;;;;;;;18.13;16.35;;;;;;;22.61;79.32;101377.22;3584162;39;20048;-69
2023/06/22 11:16:52;;;;;;;18.73;16.88;;;;;;;22.59;79.37;101395.69;3584728;40;20056;-70